MUC weather

Munich Airport
Munich, Bavaria, Germany

Public forecast

Using degrees Celsius for public forecast. Weather courtesy of forecast.io.

METAR (pilot weather report)

Retrieved 2018/12/19 14:20 UTC (33 minutes ago):

EDDM 191420Z 06003KT 9999 BKN045 02/M00 Q1017 NOSIG

TAF (pilot weather forecast)

Retrieved 2018/12/19 12:37 UTC (2 hours ago):

TAF EDDM 191100Z 1912/2018 10004KT 9999 SCT040 PROB30 TEMPO 1921/2003 4000 -FZRA BKN013 BECMG 2002/2004 22005KT TEMPO 2003/2009 3000 DZRA BKN012 BECMG 2011/2013 25010KT